.
WxDataArchive / Data Records for 2013-05-02
2013-05-01 May 2013 2013-05-03

Data Records for Thursday, 02 May 2013

Time	Temp	Chill	HIndex	Humid	Dewpt	 Wind 	HiWind	WindDir	Rain 	Barom 
-----	----	-----	------	-----	-----	------	------	-------	-----	----- 
00:00	63.5	63.5	63.5	73	54.7	0	0	---	0.00	30.156 
00:05	63.4	63.4	63.4	73	54.6	0	0	---	0.00	30.156 
00:10	63.1	63.1	63.1	74	54.7	0	0	---	0.00	30.156 
00:15	62.7	62.7	62.7	74	54.3	0	0	---	0.00	30.157 
00:20	62.6	62.6	62.6	75	54.6	0	0	---	0.00	30.157 
00:25	62.3	62.3	62.3	76	54.6	0	0	---	0.00	30.157 
00:30	62.1	62.1	62.1	76	54.4	0	0	---	0.00	30.155 
00:35	61.8	61.8	61.8	77	54.5	0	0	---	0.00	30.155 
00:40	61.5	61.5	61.5	77	54.2	0	0	---	0.00	30.155 
00:45	61.3	61.3	61.3	78	54.4	0	0	---	0.00	30.156 
00:50	61.2	61.2	61.2	78	54.3	0	0	---	0.00	30.156 
00:55	61.0	61.0	61.0	78	54.1	0	0	---	0.00	30.156 
01:00	60.7	60.7	60.7	79	54.1	0	0	---	0.00	30.155 
01:05	60.7	60.7	60.7	80	54.5	0	0	---	0.00	30.155 
01:10	60.7	60.7	60.7	81	54.8	0	2	135	0.00	30.155 
01:15	61.2	61.2	61.2	80	55.0	1	4	135	0.00	30.155 
01:20	62.0	62.0	62.0	77	54.7	1	3	135	0.00	30.155 
01:25	62.6	62.6	62.6	76	54.9	0	1	135	0.00	30.155 
01:30	62.7	62.7	62.7	75	54.7	0	0	---	0.00	30.153 
01:35	62.7	62.7	62.7	76	55.0	0	1	135	0.00	30.153 
01:40	62.7	62.7	62.7	75	54.7	0	2	135	0.00	30.153 
01:45	62.7	62.7	62.7	75	54.7	0	1	135	0.00	30.153 
01:50	62.7	62.7	62.7	75	54.7	0	1	135	0.00	30.153 
01:55	62.6	62.6	62.6	75	54.6	0	0	---	0.00	30.153 
02:00	62.4	62.4	62.4	76	54.7	0	0	---	0.00	30.151 
02:05	62.1	62.1	62.1	76	54.4	0	0	---	0.00	30.151 
02:10	61.8	61.8	61.8	77	54.5	0	1	135	0.00	30.151 
02:15	61.6	61.6	61.6	78	54.7	0	0	---	0.00	30.145 
02:20	61.5	61.5	61.5	78	54.6	0	2	135	0.00	30.145 
02:25	61.3	61.3	61.3	79	54.7	0	1	135	0.00	30.145 
02:30	61.3	61.3	61.3	80	55.1	0	1	135	0.00	30.144 
02:35	61.2	61.2	61.2	80	55.0	0	1	135	0.00	30.144 
02:40	61.2	61.2	61.2	81	55.3	0	1	135	0.00	30.144 
02:45	61.0	61.0	61.0	81	55.1	0	1	135	0.00	30.143 
02:50	61.0	61.0	61.0	82	55.5	0	4	135	0.00	30.143 
02:55	61.0	61.0	61.0	82	55.5	0	3	135	0.00	30.143 
03:00	61.0	61.0	61.0	83	55.8	0	3	135	0.00	30.142 
03:05	60.9	60.9	60.9	83	55.7	0	2	135	0.00	30.142 
03:10	60.9	60.9	60.9	83	55.7	0	2	135	0.00	30.142 
03:15	60.7	60.7	60.7	83	55.5	0	1	135	0.00	30.138 
03:20	60.5	60.5	60.5	83	55.3	0	1	135	0.00	30.138 
03:25	60.4	60.4	60.4	84	55.5	0	2	135	0.00	30.138 
03:30	60.2	60.2	60.2	84	55.3	0	1	135	0.00	30.135 
03:35	60.1	60.1	60.1	84	55.2	0	0	---	0.00	30.135 
03:40	59.8	59.8	59.8	84	55.0	0	0	---	0.00	30.135 
03:45	59.6	59.6	59.6	84	54.8	0	0	---	0.00	30.135 
03:50	59.3	59.3	59.3	84	54.5	0	0	---	0.00	30.135 
03:55	59.0	59.0	59.0	84	54.2	0	0	---	0.00	30.135 
04:00	58.7	58.7	58.7	85	54.2	0	0	---	0.00	30.139 
04:05	58.6	58.6	58.6	85	54.1	0	0	---	0.00	30.139 
04:10	58.3	58.3	58.3	85	53.8	0	0	---	0.00	30.139 
04:15	58.1	58.1	58.1	86	53.9	0	0	---	0.00	30.138 
04:20	58.0	58.0	58.0	87	54.1	0	0	---	0.00	30.138 
04:25	57.8	57.8	57.8	87	54.0	0	0	---	0.00	30.138 
04:30	57.6	57.6	57.6	87	53.8	0	0	---	0.00	30.138 
04:35	57.6	57.6	57.6	88	54.1	0	0	---	0.00	30.138 
04:40	57.5	57.5	57.5	88	54.0	0	0	---	0.00	30.138 
04:45	57.3	57.3	57.3	88	53.8	0	0	---	0.00	30.141 
04:50	57.2	57.2	57.2	88	53.7	0	0	---	0.00	30.141 
04:55	57.2	57.2	57.2	88	53.7	0	0	---	0.00	30.141 
05:00	57.0	57.0	57.0	88	53.5	0	0	---	0.00	30.139 
05:05	56.9	56.9	56.9	89	53.7	0	0	---	0.00	30.139 
05:10	56.9	56.9	56.9	89	53.7	0	0	---	0.00	30.139 
05:15	56.7	56.7	56.7	89	53.5	0	0	---	0.00	30.141 
05:20	56.6	56.6	56.6	89	53.4	0	0	---	0.00	30.141 
05:25	56.5	56.5	56.5	89	53.3	0	0	---	0.00	30.141 
05:30	56.5	56.5	56.5	89	53.3	0	0	---	0.00	30.142 
05:35	56.5	56.5	56.5	90	53.6	0	0	---	0.00	30.142 
05:40	56.3	56.3	56.3	90	53.4	0	0	---	0.00	30.142 
05:45	56.2	56.2	56.2	90	53.3	0	0	---	0.00	30.143 
05:50	56.0	56.0	56.0	90	53.1	0	0	---	0.00	30.143 
05:55	55.9	55.9	55.9	90	53.0	0	0	---	0.00	30.143 
06:00	55.9	55.9	55.9	91	53.3	0	0	---	0.00	30.145 
06:05	55.9	55.9	55.9	91	53.3	0	0	---	0.00	30.145 
06:10	55.9	55.9	55.9	91	53.3	0	0	---	0.00	30.145 
06:15	55.7	55.7	55.7	91	53.1	0	0	---	0.00	30.147 
06:20	55.6	55.6	55.6	91	53.0	0	0	---	0.00	30.147 
06:25	55.4	55.4	55.4	91	52.8	0	0	---	0.00	30.147 
06:30	55.4	55.4	55.4	91	52.8	0	0	---	0.00	30.152 
06:35	55.3	55.3	55.3	91	52.7	0	0	---	0.00	30.152 
06:40	55.3	55.3	55.3	91	52.7	0	0	---	0.00	30.152 
06:45	55.3	55.3	55.3	92	53.0	0	0	---	0.00	30.154 
06:50	55.3	55.3	55.3	92	53.0	0	0	---	0.00	30.154 
06:55	55.3	55.3	55.3	92	53.0	0	0	---	0.00	30.154 
07:00	55.6	55.6	55.6	92	53.3	0	1	135	0.00	30.159 
07:05	56.0	56.0	56.0	92	53.7	1	2	135	0.00	30.159 
07:10	56.5	56.5	56.5	91	53.9	1	3	112	0.00	30.159 
07:15	56.6	56.6	56.6	90	53.7	0	2	112	0.00	30.163 
07:20	56.9	56.9	56.9	89	53.7	0	1	112	0.00	30.163 
07:25	57.0	57.0	57.0	88	53.5	0	1	112	0.00	30.163 
07:30	57.3	57.3	57.3	88	53.8	0	1	112	0.00	30.164 
07:35	57.6	57.6	57.6	87	53.8	0	1	112	0.00	30.164 
07:40	58.0	58.0	58.0	86	53.8	0	1	112	0.00	30.164 
07:45	58.3	58.3	58.3	86	54.1	0	0	---	0.00	30.166 
07:50	58.7	58.7	58.7	84	53.9	0	1	112	0.00	30.166 
07:55	59.2	59.2	59.2	83	54.0	0	1	112	0.00	30.166 
08:00	59.8	59.8	59.8	82	54.3	0	2	112	0.00	30.166 
08:05	60.2	60.2	60.2	81	54.3	0	1	112	0.00	30.166 
08:10	60.7	60.7	60.7	80	54.5	0	1	112	0.00	30.166 
08:15	61.3	61.3	61.3	78	54.4	0	1	135	0.00	30.172 
08:20	61.8	61.8	61.8	77	54.5	1	2	135	0.00	30.172 
08:25	62.4	62.4	62.4	76	54.7	1	3	135	0.00	30.172 
08:30	63.1	63.1	63.1	74	54.7	1	2	135	0.00	30.176 
08:35	63.9	63.9	63.9	73	55.1	0	2	135	0.00	30.176 
08:40	64.7	64.7	64.7	70	54.7	0	2	135	0.00	30.176 
08:45	65.5	65.5	65.5	69	55.1	1	3	135	0.00	30.178 
08:50	66.3	66.3	66.3	67	55.0	1	4	135	0.00	30.178 
08:55	66.8	66.8	66.8	66	55.1	1	3	90	0.00	30.178 
09:00	67.3	67.3	67.3	64	54.7	1	3	112	0.00	30.177 
09:05	67.8	67.8	67.8	64	55.2	1	3	112	0.00	30.177 
09:10	68.1	68.1	68.1	63	55.0	1	3	112	0.00	30.177 
09:15	68.6	68.6	68.6	63	55.5	0	1	112	0.00	30.182 
09:20	68.9	68.9	68.9	60	54.4	1	4	112	0.00	30.182 
09:25	69.3	69.3	69.3	59	54.3	0	4	112	0.00	30.182 
09:30	69.6	69.6	69.6	57	53.7	1	4	135	0.00	30.184 
09:35	69.8	69.8	69.8	56	53.4	2	5	90	0.00	30.184 
09:40	70.1	70.1	70.1	56	53.7	1	5	90	0.00	30.184 
09:45	70.4	70.4	70.4	57	54.4	1	2	112	0.00	30.185 
09:50	70.8	70.8	70.8	54	53.3	1	5	112	0.00	30.185 
09:55	70.9	70.9	70.9	56	54.4	1	3	112	0.00	30.185 
10:00	71.1	71.1	71.1	56	54.6	1	3	112	0.00	30.182 
10:05	70.8	70.8	70.8	55	53.8	1	4	112	0.00	30.182 
10:10	70.8	70.8	70.8	53	52.8	2	6	135	0.00	30.182 
10:15	70.6	70.6	70.6	55	53.6	2	6	90	0.00	30.185 
10:20	70.4	70.4	70.4	57	54.4	1	4	90	0.00	30.185 
10:25	70.3	70.3	70.3	57	54.3	0	2	68	0.00	30.185 
10:30	70.3	70.3	70.3	57	54.3	0	2	68	0.00	30.185 
10:35	70.3	70.3	70.3	57	54.3	0	2	68	0.00	30.185 
10:40	70.1	70.1	70.1	57	54.1	1	2	90	0.00	30.185 
10:45	70.3	70.3	70.3	56	53.8	0	2	90	0.00	30.183 
10:50	70.4	70.4	70.4	58	54.9	0	3	90	0.00	30.183 
10:55	70.8	70.8	70.8	57	54.8	0	3	90	0.00	30.183 
11:00	71.1	71.1	71.1	56	54.6	0	1	90	0.00	30.181 
11:05	71.6	71.6	71.6	55	54.6	0	2	90	0.00	30.181 
11:10	72.3	72.3	72.3	53	54.2	1	4	90	0.00	30.181 
11:15	72.8	72.8	72.8	56	56.2	1	3	90	0.00	30.180 
11:20	73.3	73.3	73.3	53	55.1	0	3	90	0.00	30.180 
11:25	73.7	73.7	73.7	51	54.4	1	2	90	0.00	30.180 
11:30	73.9	73.9	73.9	50	54.1	1	4	90	0.00	30.178 
11:35	74.2	74.2	74.2	50	54.3	0	3	90	0.00	30.178 
11:40	74.7	74.7	74.7	53	56.4	0	2	90	0.00	30.178 
11:45	75.1	75.1	77.7	51	55.7	1	3	90	0.00	30.174 
11:50	75.1	75.1	77.7	48	54.1	2	4	90	0.00	30.174 
11:55	74.9	74.9	74.9	48	53.9	1	5	90	0.00	30.174 
12:00	75.1	75.1	77.7	50	55.2	2	5	90	0.00	30.170 
12:05	75.6	75.6	77.9	48	54.5	1	4	90	0.00	30.170 
12:10	76.0	76.0	78.1	49	55.4	2	5	112	0.00	30.170 
12:15	76.5	76.5	78.3	49	55.9	1	4	112	0.00	30.166 
12:20	77.0	77.0	78.4	45	54.0	2	6	112	0.00	30.166 
12:25	76.7	76.7	78.3	46	54.3	2	4	112	0.00	30.166 
12:30	76.5	76.5	78.2	44	52.9	1	6	112	0.00	30.169 
12:35	76.5	76.5	78.2	45	53.6	1	3	90	0.00	30.169 
12:40	76.7	76.7	78.3	46	54.3	2	4	90	0.00	30.169 
12:45	76.7	76.7	78.3	46	54.3	2	9	90	0.00	30.162 
12:50	76.7	76.7	78.3	46	54.3	2	6	112	0.00	30.162 
12:55	77.0	77.0	78.5	46	54.6	2	5	112	0.00	30.162 
13:00	76.8	76.8	78.3	45	53.8	3	11	112	0.00	30.160 
13:05	76.7	76.7	78.2	42	51.9	2	7	90	0.00	30.160 
13:10	77.2	77.2	78.5	44	53.6	2	4	90	0.00	30.160 
13:15	77.4	77.4	78.6	44	53.8	2	6	112	0.00	30.154 
13:20	77.6	77.6	78.7	44	53.9	2	7	112	0.00	30.154 
13:25	77.6	77.6	78.7	43	53.3	2	6	90	0.00	30.154 
13:30	77.4	77.4	78.6	44	53.8	2	4	90	0.00	30.146 
13:35	77.4	77.4	78.6	44	53.8	3	7	90	0.00	30.146 
13:40	77.0	77.0	78.4	43	52.8	3	9	90	0.00	30.146 
13:45	77.2	77.2	78.5	45	54.2	3	7	90	0.00	30.144 
13:50	77.4	77.4	78.6	43	53.1	2	5	90	0.00	30.144 
13:55	77.2	77.2	78.5	43	52.9	3	10	112	0.00	30.144 
14:00	77.2	77.2	78.6	46	54.8	2	11	90	0.00	30.145 
14:05	76.7	76.7	78.3	46	54.3	3	11	90	0.00	30.145 
14:10	76.3	76.3	78.1	46	54.0	3	5	90	0.00	30.145 
14:15	75.8	75.8	78.0	48	54.7	2	6	90	0.00	30.141 
14:20	75.8	75.8	77.9	47	54.1	3	5	112	0.00	30.141 
14:25	75.6	75.6	77.8	46	53.3	4	9	90	0.00	30.141 
14:30	76.0	76.0	78.0	48	54.9	3	11	112	0.00	30.133 
14:35	76.1	76.1	78.0	46	53.8	3	7	90	0.00	30.133 
14:40	76.1	76.1	78.0	46	53.8	4	9	90	0.00	30.133 
14:45	76.3	76.3	78.1	46	54.0	2	8	135	0.00	30.133 
14:50	76.8	76.8	78.3	43	52.6	4	11	90	0.00	30.133 
14:55	76.8	76.8	78.4	46	54.4	4	9	90	0.00	30.133 
15:00	77.2	77.2	78.5	45	54.2	1	5	135	0.00	30.128 
15:05	77.6	77.6	78.7	44	53.9	3	10	112	0.00	30.128 
15:10	77.4	77.4	78.6	43	53.1	3	12	112	0.00	30.128 
15:15	77.4	77.4	78.6	44	53.8	4	9	112	0.00	30.126 
15:20	77.6	77.6	78.6	42	52.7	2	6	112	0.00	30.126 
15:25	77.6	77.6	78.6	41	52.0	5	9	112	0.00	30.126 
15:30	77.4	77.4	78.6	43	53.1	4	9	112	0.00	30.117 
15:35	77.2	77.2	78.5	44	53.6	4	7	112	0.00	30.117 
15:40	77.4	77.4	78.5	41	51.8	2	7	112	0.00	30.117 
15:45	77.2	77.2	78.4	42	52.3	4	11	90	0.00	30.115 
15:50	77.4	77.4	78.6	44	53.8	4	9	112	0.00	30.115 
15:55	77.6	77.6	78.6	42	52.7	3	11	90	0.00	30.115 
16:00	77.4	77.4	78.6	43	53.1	3	7	90	0.00	30.112 
16:05	76.8	76.8	78.2	42	51.9	4	10	112	0.00	30.112 
16:10	76.8	76.8	78.2	42	51.9	2	4	112	0.00	30.112 
16:15	77.2	77.2	78.3	40	51.0	4	10	112	0.00	30.109 
16:20	76.7	76.7	78.2	43	52.5	4	8	112	0.00	30.109 
16:25	76.3	76.3	78.1	45	53.4	5	13	90	0.00	30.109 
16:30	76.1	76.1	77.9	42	51.3	4	10	112	0.00	30.107 
16:35	76.5	76.5	78.2	46	54.2	3	6	90	0.00	30.107 
16:40	76.8	76.8	78.2	41	51.3	3	8	90	0.00	30.107 
16:45	76.8	76.8	78.1	40	50.6	3	9	112	0.00	30.102 
16:50	76.3	76.3	77.9	40	50.2	5	12	112	0.00	30.102 
16:55	76.3	76.3	78.0	42	51.5	4	10	90	0.00	30.102 
17:00	76.3	76.3	78.0	41	50.8	2	6	90	0.00	30.102 
17:05	75.8	75.8	77.9	44	52.3	4	9	112	0.00	30.102 
17:10	75.3	75.3	77.7	44	51.9	4	7	90	0.00	30.102 
17:15	74.7	74.7	74.7	46	52.5	2	6	90	0.00	30.098 
17:20	74.7	74.7	74.7	46	52.5	2	4	90	0.00	30.098 
17:25	75.3	75.3	77.7	45	52.5	2	6	90	0.00	30.098 
17:30	75.3	75.3	77.7	45	52.5	4	7	112	0.00	30.094 
17:35	74.9	74.9	74.9	46	52.7	2	6	90	0.00	30.094 
17:40	74.9	74.9	74.9	48	53.9	2	5	112	0.00	30.094 
17:45	74.9	74.9	74.9	45	52.1	3	6	90	0.00	30.091 
17:50	74.6	74.6	74.6	46	52.4	3	9	112	0.00	30.091 
17:55	74.0	74.0	74.0	46	51.9	2	7	90	0.00	30.091 
18:00	74.0	74.0	74.0	47	52.5	2	7	90	0.00	30.089 
18:05	74.2	74.2	74.2	46	52.1	3	7	112	0.00	30.089 
18:10	74.0	74.0	74.0	46	51.9	3	7	112	0.00	30.089 
18:15	73.9	73.9	73.9	46	51.8	3	7	90	0.00	30.091 
18:20	73.5	73.5	73.5	46	51.4	2	7	90	0.00	30.091 
18:25	73.2	73.2	73.2	48	52.3	2	5	68	0.00	30.091 
18:30	73.2	73.2	73.2	47	51.7	2	5	112	0.00	30.092 
18:35	73.0	73.0	73.0	47	51.6	2	5	112	0.00	30.092 
18:40	72.8	72.8	72.8	47	51.4	3	7	112	0.00	30.092 
18:45	72.7	72.7	72.7	47	51.3	2	5	112	0.00	30.091 
18:50	72.5	72.5	72.5	47	51.1	2	5	90	0.00	30.091 
18:55	72.3	72.3	72.3	46	50.3	2	7	112	0.00	30.091 
19:00	72.3	72.3	72.3	46	50.3	2	5	90	0.00	30.090 
19:05	72.1	72.1	72.1	47	50.7	2	3	90	0.00	30.090 
19:10	72.0	72.0	72.0	48	51.2	2	7	112	0.00	30.090 
19:15	71.8	71.8	71.8	49	51.6	2	5	90	0.00	30.080 
19:20	71.6	71.6	71.6	49	51.4	2	6	90	0.00	30.080 
19:25	71.6	71.6	71.6	49	51.4	2	4	90	0.00	30.080 
19:30	71.6	71.6	71.6	49	51.4	1	4	90	0.00	30.076 
19:35	71.6	71.6	71.6	49	51.4	1	3	90	0.00	30.076 
19:40	71.6	71.6	71.6	50	52.0	1	3	90	0.00	30.076 
19:45	71.5	71.5	71.5	50	51.9	1	4	135	0.00	30.075 
19:50	71.3	71.3	71.3	49	51.1	2	5	112	0.00	30.075 
19:55	71.1	71.1	71.1	49	51.0	1	3	112	0.00	30.075 
20:00	71.1	71.1	71.1	49	51.0	1	4	112	0.00	30.079 
20:05	70.9	70.9	70.9	49	50.8	1	2	112	0.00	30.079 
20:10	70.9	70.9	70.9	50	51.3	1	3	112	0.00	30.079 
20:15	70.8	70.8	70.8	50	51.2	1	4	112	0.00	30.074 
20:20	70.6	70.6	70.6	50	51.0	1	3	112	0.00	30.074 
20:25	70.4	70.4	70.4	50	50.9	1	3	112	0.00	30.074 
20:30	70.3	70.3	70.3	51	51.3	0	2	112	0.00	30.075 
20:35	69.9	69.9	69.9	52	51.5	0	1	112	0.00	30.075 
20:40	69.6	69.6	69.6	54	52.2	0	1	112	0.00	30.075 
20:45	69.3	69.3	69.3	54	51.9	0	2	112	0.00	30.075 
20:50	68.9	68.9	68.9	56	52.5	0	1	112	0.00	30.075 
20:55	68.6	68.6	68.6	56	52.3	0	1	112	0.00	30.075 
21:00	68.3	68.3	68.3	57	52.5	0	1	112	0.00	30.075 
21:05	67.9	67.9	67.9	58	52.6	0	1	112	0.00	30.075 
21:10	67.6	67.6	67.6	58	52.3	0	0	---	0.00	30.075 
21:15	67.3	67.3	67.3	58	52.0	0	1	112	0.00	30.075 
21:20	67.1	67.1	67.1	58	51.8	0	1	112	0.00	30.075 
21:25	66.9	66.9	66.9	59	52.1	0	1	112	0.00	30.075 
21:30	66.6	66.6	66.6	59	51.8	0	1	112	0.00	30.076 
21:35	66.4	66.4	66.4	60	52.1	0	1	112	0.00	30.076 
21:40	66.3	66.3	66.3	60	52.0	0	0	---	0.00	30.076 
21:45	66.1	66.1	66.1	60	51.8	0	0	---	0.00	30.079 
21:50	66.0	66.0	66.0	60	51.7	0	1	112	0.00	30.079 
21:55	65.8	65.8	65.8	61	52.0	0	0	---	0.00	30.079 
22:00	65.6	65.6	65.6	61	51.8	0	0	---	0.00	30.083 
22:05	65.5	65.5	65.5	62	52.1	0	0	---	0.00	30.083 
22:10	65.2	65.2	65.2	62	51.8	0	0	---	0.00	30.083 
22:15	64.7	64.7	64.7	63	51.8	0	0	---	0.00	30.083 
22:20	64.3	64.3	64.3	63	51.4	0	0	---	0.00	30.083 
22:25	64.0	64.0	64.0	64	51.6	0	0	---	0.00	30.083 
22:30	63.9	63.9	63.9	65	51.9	0	0	---	0.00	30.085 
22:35	63.5	63.5	63.5	65	51.5	0	0	---	0.00	30.085 
22:40	63.4	63.4	63.4	66	51.8	0	0	---	0.00	30.085 
22:45	63.1	63.1	63.1	67	52.0	0	0	---	0.00	30.085 
22:50	62.9	62.9	62.9	67	51.8	0	0	---	0.00	30.085 
22:55	62.7	62.7	62.7	68	52.0	0	0	---	0.00	30.085 
23:00	62.6	62.6	62.6	69	52.3	0	0	---	0.00	30.082 
23:05	62.4	62.4	62.4	69	52.1	0	0	---	0.00	30.082 
23:10	62.4	62.4	62.4	70	52.5	0	0	---	0.00	30.082 
23:15	62.4	62.4	62.4	70	52.5	0	0	---	0.00	30.078 
23:20	62.3	62.3	62.3	70	52.4	0	0	---	0.00	30.078 
23:25	62.1	62.1	62.1	70	52.2	0	0	---	0.00	30.078 
23:30	62.0	62.0	62.0	70	52.1	0	0	---	0.00	30.075 
23:35	62.0	62.0	62.0	71	52.5	0	0	---	0.00	30.075 
23:40	61.8	61.8	61.8	72	52.7	0	0	---	0.00	30.075 
23:45	62.0	62.0	62.0	73	53.2	0	0	---	0.00	30.073 
23:50	62.0	62.0	62.0	73	53.2	0	0	---	0.00	30.073 
23:55	62.1	62.1	62.1	74	53.7	0	0	---	0.00	30.073 

CoCoRaHS
IN-AL-39
A2 Web Hosting
Creative Commons License
GoDaddy
search engine by freefind advanced

loaded 2018-11-13 02:44:58 • last modified 2010-11-18 10:43:29
Privacy PolicyDisclaimer
• wx.awcolley.com is powered by PmWiki v.2002016 •
• all content (unless otherwise noted) © 2018 A W Colley